x

Newport, Or (nwpo3) Weather Station

5:00am - Tue 22nd May 2018 All times are PDT. -7 hours from GMT.

  • Wind
    5mph, 5mph gusts
  • Air Temp 47°f
  • Sea Pressure 1014.1mb
  • Newport, Or
  • Newport, Or

More Historic Weather Station data

Upgrade to MSW Pro to gain access to the past 30 days of data for over 8000 Wavebouys and Weather Stations around the globe.

Join

Comparision Forecast

View Surf forecast
   
Tue 05/22 5:00am 5 5 mph 1014.1mb 47f
4:00am 5 5 mph 1014.4mb 48f
3:00am 2 2 mph 1014.5mb 49f
2:00am 1 1 mph 1014.7mb 51f
1:00am  -  1 mph 1015.1mb 51f
12:00am 3 5 mph 1015.3mb 52f
Mon 05/21 11:00pm 6 6 mph 1015.4mb 53f
10:00pm 17 20 mph 1015.3mb 54f
9:00pm 16 20 mph 1015.2mb 54f
8:00pm 20 21 mph 1015.1mb 54f
7:00pm 18 21 mph 1015.4mb 54f
6:00pm 18 20 mph 1016mb 54f
5:00pm 20 22 mph 1016.4mb 54f
4:00pm 20 22 mph 1016.9mb 54f
3:00pm 20 22 mph 1017.1mb 54f
2:00pm 18 20 mph 1017.3mb 54f
1:00pm 16 17 mph 1017.7mb 54f
12:00pm 15 17 mph 1018.4mb 53f
11:00am 13 16 mph 1018.5mb 53f
10:00am 13 15 mph 1018.6mb 52f
9:00am 9 10 mph 1018.6mb 52f
8:00am 3 3 mph 1018.4mb 52f
7:00am 6 7 mph 1018mb 49f
6:00am 6 7 mph 1017.8mb 48f
5:00am 3 3 mph 1018.2mb 50f
4:00am 5 5 mph 1018.3mb 52f
3:00am 9 10 mph 1018.4mb 53f
2:00am 2 5 mph 1018.6mb 53f
1:00am 7 8 mph 1018.5mb 53f
12:00am 9 11 mph 1018.8mb 54f
Sun 05/20 11:00pm 10 11 mph 1019mb 55f
10:00pm 9 11 mph 1019.1mb 54f
9:00pm 11 14 mph 1018.8mb 54f
8:00pm 13 15 mph 1018.7mb 54f
7:00pm 15 17 mph 1018.5mb 54f
6:00pm 14 16 mph 1018.7mb 55f
5:00pm 14 16 mph 1018.8mb 55f
4:00pm 13 15 mph 1018.9mb 55f
3:00pm 13 14 mph 1019.1mb 55f
2:00pm 11 13 mph 1019.2mb 55f
1:00pm 10 14 mph 1019.2mb 55f
12:00pm 13 14 mph 1019mb 55f
11:00am 10 11 mph 1019mb 54f
10:00am 7 7 mph 1018.9mb 54f
9:00am 8 9 mph 1018.7mb 54f
8:00am 9 10 mph 1018.4mb 54f
7:00am 10 11 mph 1018mb 54f
6:00am 2 3 mph 1017.6mb 51f
5:00am 3 3 mph 1017.2mb 51f
4:00am 3 3 mph 1017.1mb 50f
3:00am 3 3 mph 1017mb 51f
2:00am 6 6 mph 1017.1mb 54f
1:00am 3 3 mph 1017.2mb 54f
12:00am 5 5 mph 1017.2mb 54f
Sat 05/19 11:00pm 3 6 mph 1017.1mb 54f
10:00pm 9 9 mph 1017mb 54f
9:00pm 10 11 mph 1016.5mb 55f
8:00pm 13 15 mph 1016.2mb 55f
7:00pm 13 15 mph 1016.2mb 55f
6:00pm 14 16 mph 1016.4mb 55f
5:00pm 15 15 mph 1016.4mb 55f
4:00pm 13 14 mph 1017mb 54f
3:00pm 11 13 mph 1017.3mb 54f
2:00pm 11 13 mph 1017.6mb 53f
1:00pm 8 9 mph 1017.7mb 53f
12:00pm 8 9 mph 1017.7mb 53f
11:00am 10 11 mph 1017.5mb 53f
10:00am 11 13 mph 1017.5mb 53f
9:00am 5 6 mph 1017.7mb 53f
8:00am 1 1 mph 1017.4mb 54f
7:00am 1 1 mph 1017.2mb 53f
6:00am 3 3 mph 1016.9mb 53f
5:00am  -  0 mph 1017.1mb 53f
4:00am  -  1 mph 1017.2mb 54f
3:00am  -  0 mph 1017.4mb 54f
2:00am  -  0 mph 1017.4mb 54f
1:00am  -  0 mph 1017.6mb 53f
12:00am 2 3 mph 1017.9mb 54f
Fri 05/18 11:00pm 2 2 mph 1018.1mb 54f
10:00pm 2 3 mph 1018.3mb 55f
9:00pm 7 8 mph 1017.9mb 55f
8:00pm 11 13 mph 1017.7mb 55f
7:00pm 11 14 mph 1017.6mb 55f
6:00pm 11 13 mph 1017.8mb 55f
5:00pm 11 13 mph 1018.1mb 55f
4:00pm 10 13 mph 1018.3mb 55f
3:00pm 10 11 mph 1018.3mb 55f
2:00pm 9 10 mph 1018.6mb 54f